TAF and METAR

METAR for Sarh Airport

FTTA 290500Z 00000KT 9999 FEW020 23/22 Q1012
Report created 29. sep 07:00
wind 0 knots from N (000°) visibility > 10km some clouds (~25% cover) at 2000 feet Temperature 23° with dewpoint at 22° (Humidity 94.12%) Pressure 1012 hPa
No TAF available for Sarh Airport